createdAt,value
2018-04-15T00:00:07.855Z,33.27
2018-04-15T00:02:35.876Z,30.90
2018-04-15T00:05:07.707Z,28.07
2018-04-15T00:07:36.036Z,28.30
2018-04-15T00:10:07.391Z,32.50
2018-04-15T00:12:35.647Z,28.97
2018-04-15T00:15:06.311Z,33.23
2018-04-15T00:17:34.364Z,29.60
2018-04-15T00:20:08.156Z,35.20
2018-04-15T00:22:36.150Z,38.30
2018-04-15T00:25:07.834Z,37.97
2018-04-15T00:27:39.751Z,38.23
2018-04-15T00:30:07.797Z,35.03
2018-04-15T00:32:35.834Z,36.13
2018-04-15T00:35:07.559Z,35.57
2018-04-15T00:37:35.596Z,35.23
2018-04-15T00:40:07.278Z,34.87
2018-04-15T00:42:35.460Z,34.47
2018-04-15T00:45:06.501Z,32.00
2018-04-15T00:47:34.533Z,31.27
2018-04-15T00:50:05.736Z,32.83
2018-04-15T00:52:34.170Z,31.17
2018-04-15T00:55:08.544Z,32.30
2018-04-15T00:57:36.991Z,31.70
2018-04-15T01:00:08.036Z,34.57
2018-04-15T01:02:36.275Z,34.67
2018-04-15T01:05:07.452Z,31.20
2018-04-15T01:07:35.491Z,31.73
2018-04-15T01:10:06.447Z,28.43
2018-04-15T01:12:34.773Z,27.07
2018-04-15T01:15:06.667Z,28.23
2018-04-15T01:17:35.506Z,26.17
2018-04-15T01:20:06.468Z,28.97
2018-04-15T01:22:34.596Z,28.00
2018-04-15T01:25:05.732Z,29.47
2018-04-15T01:27:33.748Z,28.37
2018-04-15T01:32:34.935Z,24.57
2018-04-15T01:35:10.305Z,26.30
2018-04-15T01:37:38.302Z,25.03
2018-04-15T01:40:06.374Z,23.97
2018-04-15T01:42:34.420Z,21.97
2018-04-15T01:45:06.431Z,24.83
2018-04-15T01:47:34.473Z,22.43
2018-04-15T01:50:05.623Z,22.47
2018-04-15T01:52:33.649Z,21.57
2018-04-15T01:55:04.739Z,19.87
2018-04-15T01:57:33.032Z,21.83
2018-04-15T02:00:02.582Z,21.67
2018-04-15T02:02:33.203Z,18.10
2018-04-15T02:05:04.995Z,19.63
2018-04-15T02:07:33.047Z,19.73
2018-04-15T02:10:02.808Z,17.60
2018-04-15T02:12:32.173Z,20.43
2018-04-15T02:15:00.203Z,16.57
2018-04-15T02:17:28.218Z,17.30
2018-04-15T02:19:56.246Z,22.27
2018-04-15T02:22:24.276Z,19.33
2018-04-15T02:24:52.327Z,19.47
2018-04-15T02:27:20.534Z,17.27
2018-04-15T02:29:49.036Z,18.33
2018-04-15T02:32:17.006Z,21.63
2018-04-15T02:34:45.063Z,18.97
2018-04-15T02:37:13.079Z,16.27
2018-04-15T02:39:41.130Z,17.87
2018-04-15T02:42:09.166Z,18.07
2018-04-15T02:44:37.217Z,18.33
2018-04-15T02:47:05.239Z,20.43
2018-04-15T02:49:33.278Z,19.13
2018-04-15T02:52:01.319Z,21.23
2018-04-15T02:54:29.368Z,20.60
2018-04-15T02:56:57.371Z,20.17
2018-04-15T02:59:25.579Z,18.23
2018-04-15T03:01:53.890Z,18.70
2018-04-15T03:04:21.899Z,19.13
2018-04-15T03:06:50.293Z,19.60
2018-04-15T03:09:18.317Z,19.03
2018-04-15T03:11:46.335Z,22.37
2018-04-15T03:14:14.354Z,21.33
2018-04-15T03:16:42.411Z,26.40
2018-04-15T03:19:10.419Z,25.00
2018-04-15T03:21:38.686Z,28.60
2018-04-15T03:24:06.889Z,28.97
2018-04-15T03:26:34.935Z,26.40
2018-04-15T03:29:02.967Z,24.93
2018-04-15T03:31:31.340Z,21.43
2018-04-15T03:33:59.373Z,19.97
2018-04-15T03:36:27.398Z,22.30
2018-04-15T03:38:55.398Z,23.30
2018-04-15T03:41:23.473Z,23.90
2018-04-15T03:43:51.538Z,19.83
2018-04-15T03:46:20.014Z,20.17
2018-04-15T03:48:48.251Z,22.23
2018-04-15T03:51:16.263Z,21.57
2018-04-15T03:53:44.297Z,19.63
2018-04-15T03:56:12.310Z,20.20
2018-04-15T03:58:40.403Z,22.67
2018-04-15T04:01:08.651Z,23.20
2018-04-15T04:03:36.697Z,23.53
2018-04-15T04:06:05.051Z,20.57
2018-04-15T04:08:33.078Z,22.40
2018-04-15T04:11:01.100Z,26.13
2018-04-15T04:13:29.396Z,25.23
2018-04-15T04:15:58.055Z,22.20
2018-04-15T04:18:38.566Z,25.37
2018-04-15T04:21:18.407Z,24.30
2018-04-15T04:23:58.452Z,25.30
2018-04-15T04:26:26.483Z,25.10
2018-04-15T04:28:55.431Z,29.77
2018-04-15T04:31:23.491Z,23.67
2018-04-15T04:33:51.508Z,25.47
2018-04-15T04:36:19.724Z,26.97
2018-04-15T04:38:47.830Z,26.10
2018-04-15T04:41:15.863Z,24.93
2018-04-15T04:43:43.922Z,22.17
2018-04-15T04:46:11.959Z,23.63
2018-04-15T04:48:40.103Z,23.07
2018-04-15T04:51:08.135Z,25.70
2018-04-15T04:53:36.273Z,26.83
2018-04-15T04:56:04.298Z,26.87
2018-04-15T04:58:32.353Z,25.07
2018-04-15T05:01:00.430Z,22.03
2018-04-15T05:03:32.611Z,24.00
2018-04-15T05:06:00.643Z,25.17
2018-04-15T05:08:29.316Z,41.63
2018-04-15T05:10:57.897Z,26.93
2018-04-15T05:13:25.913Z,25.73
2018-04-15T05:15:53.950Z,23.37
2018-04-15T05:18:22.151Z,20.47
2018-04-15T05:20:50.197Z,20.43
2018-04-15T05:23:18.203Z,21.00
2018-04-15T05:25:46.241Z,23.40
2018-04-15T05:28:14.338Z,22.23
2018-04-15T05:30:42.355Z,27.03
2018-04-15T05:33:10.386Z,22.97
2018-04-15T05:35:38.587Z,20.80
2018-04-15T05:38:06.624Z,23.60
2018-04-15T05:40:34.899Z,22.37
2018-04-15T05:43:02.939Z,22.73
2018-04-15T05:45:31.000Z,21.37
2018-04-15T05:47:59.124Z,22.97
2018-04-15T05:50:27.122Z,19.40
2018-04-15T05:52:55.175Z,21.07
2018-04-15T05:55:23.192Z,21.90
2018-04-15T05:57:52.511Z,17.60
2018-04-15T06:00:20.578Z,15.97
2018-04-15T06:02:48.793Z,16.37
2018-04-15T06:05:16.847Z,15.60
2018-04-15T06:07:45.065Z,14.30
2018-04-15T06:10:13.073Z,13.23
2018-04-15T06:12:41.099Z,12.50
2018-04-15T06:15:09.113Z,11.57
2018-04-15T06:17:37.124Z,12.13
2018-04-15T06:20:05.636Z,11.37
2018-04-15T06:22:33.663Z,12.07
2018-04-15T06:25:06.158Z,14.60
2018-04-15T06:27:34.194Z,13.93
2018-04-15T06:30:05.462Z,15.67
2018-04-15T06:32:33.473Z,15.57
2018-04-15T06:35:07.843Z,16.13
2018-04-15T06:37:35.879Z,13.90
2018-04-15T06:40:08.984Z,12.60
2018-04-15T06:42:37.033Z,11.67
2018-04-15T06:45:06.042Z,15.53
2018-04-15T06:47:34.112Z,11.33
2018-04-15T06:50:05.306Z,10.97
2018-04-15T06:52:33.311Z,9.53
2018-04-15T06:55:07.835Z,9.30
2018-04-15T06:57:35.848Z,6.97
2018-04-15T07:00:06.831Z,6.17
2018-04-15T07:02:34.847Z,6.20
2018-04-15T07:05:05.690Z,6.40
2018-04-15T07:07:33.687Z,7.57
2018-04-15T07:10:05.986Z,5.90
2018-04-15T07:12:33.957Z,5.83
2018-04-15T07:15:08.782Z,6.00
2018-04-15T07:17:41.252Z,5.53
2018-04-15T07:20:09.391Z,7.33
2018-04-15T07:22:37.725Z,6.13
2018-04-15T07:25:05.701Z,5.97
2018-04-15T07:27:33.701Z,5.33
2018-04-15T07:30:05.866Z,5.23
2018-04-15T07:32:33.885Z,5.93
2018-04-15T07:35:06.518Z,5.30
2018-04-15T07:37:34.591Z,6.10
2018-04-15T07:40:06.441Z,6.17
2018-04-15T07:42:35.109Z,6.47
2018-04-15T07:45:05.664Z,5.43
2018-04-15T07:47:33.707Z,6.47
2018-04-15T07:50:08.178Z,5.60
2018-04-15T07:52:36.186Z,5.53
2018-04-15T07:55:07.168Z,5.40
2018-04-15T07:57:35.248Z,5.87
2018-04-15T08:00:06.940Z,4.83
2018-04-15T08:02:35.695Z,5.03
2018-04-15T08:05:07.549Z,4.40
2018-04-15T08:07:35.765Z,4.87
2018-04-15T08:10:07.264Z,5.97
2018-04-15T08:12:35.300Z,4.10
2018-04-15T08:15:06.755Z,4.53
2018-04-15T08:17:34.764Z,2.53
2018-04-15T08:20:05.864Z,2.27
2018-04-15T08:22:33.899Z,1.90
2018-04-15T08:25:06.724Z,2.13
2018-04-15T08:27:34.764Z,2.90
2018-04-15T08:30:06.044Z,1.53
2018-04-15T08:32:34.591Z,2.17
2018-04-15T08:35:06.900Z,2.10
2018-04-15T08:37:35.460Z,2.77
2018-04-15T08:40:07.220Z,1.67
2018-04-15T08:42:35.256Z,1.57
2018-04-15T08:45:05.754Z,2.17
2018-04-15T08:47:33.885Z,1.60
2018-04-15T08:50:09.174Z,7.20
2018-04-15T08:52:37.170Z,2.03
2018-04-15T08:55:06.114Z,1.33
2018-04-15T08:57:34.292Z,2.83
2018-04-15T09:00:06.191Z,1.30
2018-04-15T09:02:34.193Z,2.93
2018-04-15T09:05:05.638Z,4.13
2018-04-15T09:07:33.636Z,1.30
2018-04-15T09:10:08.077Z,1.77
2018-04-15T09:12:36.084Z,3.40
2018-04-15T09:15:05.838Z,2.20
2018-04-15T09:17:33.843Z,2.17
2018-04-15T09:20:06.021Z,1.93
2018-04-15T09:22:34.038Z,1.97
2018-04-15T09:25:05.601Z,1.77
2018-04-15T09:27:33.763Z,2.57
2018-04-15T09:30:08.302Z,1.67
2018-04-15T09:32:36.380Z,1.50
2018-04-15T09:35:07.613Z,1.50
2018-04-15T09:37:35.655Z,3.03
2018-04-15T09:40:06.943Z,2.03
2018-04-15T09:42:34.973Z,2.17
2018-04-15T09:45:05.879Z,1.70
2018-04-15T09:47:35.221Z,2.33
2018-04-15T09:50:06.665Z,1.90
2018-04-15T09:52:34.644Z,2.23
2018-04-15T09:55:05.997Z,2.00
2018-04-15T09:57:34.008Z,1.83
2018-04-15T10:00:08.930Z,1.90
2018-04-15T10:02:36.975Z,3.07
2018-04-15T10:05:06.265Z,3.13
2018-04-15T10:07:34.259Z,1.73
2018-04-15T10:10:06.699Z,1.50
2018-04-15T10:12:34.732Z,2.70
2018-04-15T10:15:06.624Z,1.33
2018-04-15T10:17:34.658Z,3.30
2018-04-15T10:20:05.894Z,2.37
2018-04-15T10:22:33.916Z,2.00
2018-04-15T10:25:05.776Z,2.90
2018-04-15T10:27:33.813Z,3.23
2018-04-15T10:30:11.634Z,1.53
2018-04-15T10:32:39.723Z,1.90
2018-04-15T10:35:07.716Z,3.43
2018-04-15T10:37:35.711Z,1.77
2018-04-15T10:40:07.326Z,1.60
2018-04-15T10:42:36.845Z,3.23
2018-04-15T10:45:06.316Z,2.47
2018-04-15T10:47:34.323Z,1.90
2018-04-15T10:50:05.921Z,1.30
2018-04-15T10:52:33.910Z,1.93
2018-04-15T10:55:06.383Z,2.00
2018-04-15T10:57:34.624Z,2.40
2018-04-15T11:00:05.706Z,1.60
2018-04-15T11:02:33.802Z,1.50
2018-04-15T11:05:08.373Z,1.87
2018-04-15T11:07:36.351Z,1.70
2018-04-15T11:10:06.199Z,1.40
2018-04-15T11:12:34.270Z,2.23
2018-04-15T11:15:09.073Z,2.17
2018-04-15T11:17:37.152Z,1.80
2018-04-15T11:20:06.251Z,2.97
2018-04-15T11:22:34.356Z,1.23
2018-04-15T11:25:09.189Z,2.60
2018-04-15T11:27:37.240Z,5.13
2018-04-15T11:30:06.095Z,2.87
2018-04-15T11:32:34.157Z,2.70
2018-04-15T11:35:08.991Z,1.60
2018-04-15T11:37:37.009Z,1.60
2018-04-15T11:40:06.370Z,3.53
2018-04-15T11:42:34.475Z,7.17
2018-04-15T11:45:07.612Z,4.37
2018-04-15T11:47:35.635Z,2.30
2018-04-15T11:50:07.325Z,10.23
2018-04-15T11:52:35.744Z,13.63
2018-04-15T11:55:07.623Z,3.00
2018-04-15T11:57:35.655Z,7.47
2018-04-15T12:00:07.532Z,2.73
2018-04-15T12:02:35.552Z,4.53
2018-04-15T12:05:07.090Z,3.93
2018-04-15T12:07:39.454Z,2.70
2018-04-15T12:10:07.512Z,2.17
2018-04-15T12:12:35.565Z,1.63
2018-04-15T12:15:06.628Z,2.97
2018-04-15T12:17:34.848Z,7.13
2018-04-15T12:20:05.960Z,2.53
2018-04-15T12:22:34.199Z,3.00
2018-04-15T12:25:06.828Z,2.33
2018-04-15T12:27:34.818Z,1.53
2018-04-15T12:30:06.687Z,2.27
2018-04-15T12:32:34.747Z,1.90
2018-04-15T12:35:06.282Z,2.77
2018-04-15T12:37:34.875Z,3.10
2018-04-15T12:40:06.033Z,12.77
2018-04-15T12:42:34.516Z,23.53
2018-04-15T12:45:05.855Z,1.87
2018-04-15T12:47:34.114Z,2.33
2018-04-15T12:50:05.404Z,9.13
2018-04-15T12:52:33.447Z,11.20
2018-04-15T12:57:35.313Z,3.10
2018-04-15T13:00:06.243Z,1.53
2018-04-15T13:02:34.284Z,2.30
2018-04-15T13:05:08.934Z,2.13
2018-04-15T13:07:36.947Z,9.43
2018-04-15T13:10:06.010Z,2.20
2018-04-15T13:12:34.043Z,1.93
2018-04-15T13:15:08.471Z,2.67
2018-04-15T13:17:36.520Z,2.00
2018-04-15T13:20:05.975Z,1.60
2018-04-15T13:22:34.624Z,2.30
2018-04-15T13:25:06.202Z,2.57
2018-04-15T13:27:34.238Z,1.23
2018-04-15T13:30:05.585Z,7.53
2018-04-15T13:32:33.659Z,1.83
2018-04-15T13:35:06.093Z,21.40
2018-04-15T13:37:34.146Z,15.07
2018-04-15T13:40:05.706Z,15.47
2018-04-15T13:42:33.732Z,10.70
2018-04-15T13:45:04.830Z,5.90
2018-04-15T13:47:32.858Z,9.43
2018-04-15T13:50:03.909Z,22.27
2018-04-15T13:52:32.464Z,2.93
2018-04-15T13:55:00.477Z,2.60
2018-04-15T13:57:31.567Z,10.07
2018-04-15T13:59:59.644Z,13.37
2018-04-15T14:02:27.668Z,15.60
2018-04-15T14:04:55.720Z,13.87
2018-04-15T14:07:24.661Z,3.20
2018-04-15T14:09:52.675Z,1.97
2018-04-15T14:12:20.693Z,1.23
2018-04-15T14:14:49.088Z,1.80
2018-04-15T14:17:17.735Z,3.90
2018-04-15T14:19:45.783Z,2.37
2018-04-15T14:22:13.793Z,2.27
2018-04-15T14:24:41.853Z,5.97
2018-04-15T14:27:10.417Z,2.20
2018-04-15T14:29:38.463Z,3.23
2018-04-15T14:34:40.713Z,3.80
2018-04-15T14:37:08.700Z,2.27
2018-04-15T14:39:37.348Z,1.30
2018-04-15T14:42:05.421Z,3.53
2018-04-15T14:44:33.428Z,3.77
2018-04-15T14:47:01.457Z,1.67
2018-04-15T14:49:29.472Z,2.40
2018-04-15T14:51:57.593Z,2.00
2018-04-15T14:54:25.635Z,2.57
2018-04-15T14:56:53.643Z,2.10
2018-04-15T14:59:21.657Z,4.07
2018-04-15T15:01:49.981Z,12.03
2018-04-15T15:04:18.191Z,2.63
2018-04-15T15:06:46.261Z,3.63
2018-04-15T15:09:14.248Z,14.50
2018-04-15T15:11:43.065Z,1.37
2018-04-15T15:14:11.085Z,1.53
2018-04-15T15:16:39.107Z,1.90
2018-04-15T15:19:07.243Z,6.97
2018-04-15T15:21:35.274Z,2.87
2018-04-15T15:24:03.294Z,2.23
2018-04-15T15:26:31.340Z,3.40
2018-04-15T15:28:59.370Z,3.70
2018-04-15T15:31:27.391Z,7.10
2018-04-15T15:33:55.667Z,3.23
2018-04-15T15:36:23.684Z,5.17
2018-04-15T15:38:51.822Z,4.30
2018-04-15T15:41:19.814Z,4.93
2018-04-15T15:43:47.841Z,5.23
2018-04-15T15:46:15.863Z,2.60
2018-04-15T15:48:43.953Z,5.03
2018-04-15T15:51:11.942Z,2.87
2018-04-15T15:53:39.972Z,4.97
2018-04-15T15:56:07.979Z,2.60
2018-04-15T15:58:36.345Z,2.60
2018-04-15T16:01:04.351Z,1.40
2018-04-15T16:03:32.474Z,2.43
2018-04-15T16:06:00.536Z,4.10
2018-04-15T16:08:28.573Z,9.43
2018-04-15T16:10:56.573Z,4.10
2018-04-15T16:13:24.596Z,14.93
2018-04-15T16:15:52.623Z,3.67
2018-04-15T16:18:20.631Z,5.40
2018-04-15T16:20:48.692Z,2.97
2018-04-15T16:23:16.709Z,4.17
2018-04-15T16:25:45.296Z,3.07
2018-04-15T16:28:13.330Z,2.03
2018-04-15T16:30:41.700Z,1.40
2018-04-15T16:33:09.701Z,2.17
2018-04-15T16:35:38.458Z,2.43
2018-04-15T16:38:06.532Z,1.53
2018-04-15T16:40:34.541Z,1.83
2018-04-15T16:43:02.566Z,4.47
2018-04-15T16:45:30.621Z,2.20
2018-04-15T16:47:58.685Z,1.83
2018-04-15T16:50:26.677Z,6.83
2018-04-15T16:52:55.030Z,3.07
2018-04-15T16:55:23.047Z,1.87
2018-04-15T16:57:51.101Z,12.17
2018-04-15T17:00:19.118Z,3.00
2018-04-15T17:02:47.154Z,3.27
2018-04-15T17:05:15.163Z,6.90
2018-04-15T17:07:43.183Z,3.00
2018-04-15T17:10:11.197Z,4.53
2018-04-15T17:12:39.260Z,4.63
2018-04-15T17:15:07.258Z,1.93
2018-04-15T17:17:35.308Z,15.10
2018-04-15T17:20:07.484Z,5.27
2018-04-15T17:22:35.579Z,3.13
2018-04-15T17:25:07.388Z,7.30
2018-04-15T17:27:35.376Z,4.07
2018-04-15T17:30:06.907Z,6.77
2018-04-15T17:32:34.935Z,4.67
2018-04-15T17:35:06.413Z,11.60
2018-04-15T17:37:34.445Z,2.53
2018-04-15T17:40:10.097Z,2.40
2018-04-15T17:42:38.150Z,4.00
2018-04-15T17:45:06.923Z,4.20
2018-04-15T17:47:34.927Z,7.63
2018-04-15T17:50:07.065Z,2.93
2018-04-15T17:52:35.091Z,3.17
2018-04-15T17:55:06.482Z,2.50
2018-04-15T17:57:34.481Z,3.13
2018-04-15T18:00:09.156Z,3.73
2018-04-15T18:02:37.209Z,8.90
2018-04-15T18:05:06.487Z,4.27
2018-04-15T18:07:34.499Z,5.03
2018-04-15T18:10:08.773Z,2.53
2018-04-15T18:12:36.786Z,4.60
2018-04-15T18:15:08.067Z,4.00
2018-04-15T18:17:36.108Z,4.00
2018-04-15T18:20:07.783Z,5.50
2018-04-15T18:22:35.930Z,51.10
2018-04-15T18:25:07.505Z,96.33
2018-04-15T18:27:35.552Z,100.67
2018-04-15T18:30:11.436Z,46.67
2018-04-15T18:32:39.473Z,19.23
2018-04-15T18:35:07.572Z,15.50
2018-04-15T18:37:35.597Z,12.80
2018-04-15T18:40:06.905Z,13.20
2018-04-15T18:42:34.953Z,12.07
2018-04-15T18:45:06.505Z,27.53
2018-04-15T18:47:33.826Z,38.20
2018-04-15T18:52:34.264Z,212.93
2018-04-15T18:55:08.729Z,1344.20
2018-04-15T18:57:36.778Z,1526.73
2018-04-15T19:00:06.401Z,1510.53
2018-04-15T19:02:34.809Z,83.90
2018-04-15T19:05:06.648Z,536.97
2018-04-15T19:07:34.666Z,1570.70
2018-04-15T19:10:05.764Z,1999.90
2018-04-15T19:12:33.843Z,1199.57
2018-04-15T19:15:05.505Z,489.17
2018-04-15T19:17:33.556Z,458.97
2018-04-15T19:20:04.710Z,184.77
2018-04-15T19:22:32.747Z,408.47
2018-04-15T19:25:00.795Z,192.00
2018-04-15T19:27:34.440Z,131.50
2018-04-15T19:30:06.207Z,73.73
2018-04-15T19:32:34.276Z,47.30
2018-04-15T19:35:08.805Z,27.23
2018-04-15T19:37:36.917Z,20.27
2018-04-15T19:40:06.682Z,11.87
2018-04-15T19:42:34.855Z,14.63
2018-04-15T19:45:06.684Z,11.83
2018-04-15T19:47:34.746Z,9.17
2018-04-15T19:50:05.997Z,8.73
2018-04-15T19:52:34.032Z,6.33
2018-04-15T19:55:05.258Z,7.57
2018-04-15T19:57:33.258Z,5.43
2018-04-15T20:00:06.148Z,5.93
2018-04-15T20:02:34.150Z,4.47
2018-04-15T20:05:05.115Z,5.83
2018-04-15T20:07:33.123Z,3.40
2018-04-15T20:10:02.588Z,7.20
2018-04-15T20:12:32.213Z,5.70
2018-04-15T20:15:00.234Z,4.77
2018-04-15T20:17:28.272Z,6.00
2018-04-15T20:19:56.256Z,3.87
2018-04-15T20:22:24.576Z,3.90
2018-04-15T20:24:52.570Z,5.80
2018-04-15T20:27:20.670Z,6.03
2018-04-15T20:29:48.723Z,9.90
2018-04-15T20:32:16.757Z,4.63
2018-04-15T20:34:44.852Z,27.23
2018-04-15T20:37:12.932Z,9.73
2018-04-15T20:39:40.953Z,4.43
2018-04-15T20:42:09.020Z,27.80
2018-04-15T20:44:37.074Z,22.93
2018-04-15T20:47:05.067Z,9.93
2018-04-15T20:49:33.306Z,7.10
2018-04-15T20:52:01.355Z,4.87
2018-04-15T20:54:29.398Z,4.80
2018-04-15T20:56:57.427Z,5.10
2018-04-15T20:59:25.450Z,5.10
2018-04-15T21:01:53.482Z,13.50
2018-04-15T21:04:21.513Z,4.83
2018-04-15T21:06:49.522Z,4.73
2018-04-15T21:09:17.739Z,5.50
2018-04-15T21:11:45.740Z,5.00
2018-04-15T21:14:13.791Z,4.20
2018-04-15T21:16:42.163Z,4.07
2018-04-15T21:19:10.259Z,5.83
2018-04-15T21:21:38.292Z,4.97
2018-04-15T21:24:06.867Z,4.27
2018-04-15T21:26:34.896Z,4.47
2018-04-15T21:29:02.941Z,4.83
2018-04-15T21:31:30.974Z,5.93
2018-04-15T21:33:58.968Z,5.17
2018-04-15T21:36:26.988Z,6.63
2018-04-15T21:38:54.999Z,8.17
2018-04-15T21:41:23.039Z,5.87
2018-04-15T21:43:51.058Z,4.23
2018-04-15T21:46:20.022Z,6.40
2018-04-15T21:48:48.060Z,6.33
2018-04-15T21:51:16.077Z,5.40
2018-04-15T21:53:44.114Z,5.27
2018-04-15T21:56:12.157Z,4.70
2018-04-15T21:58:40.164Z,7.07
2018-04-15T22:01:08.195Z,4.37
2018-04-15T22:03:36.308Z,4.40
2018-04-15T22:06:04.294Z,6.10
2018-04-15T22:08:32.310Z,4.57
2018-04-15T22:11:00.664Z,5.17
2018-04-15T22:13:28.806Z,6.17
2018-04-15T22:15:56.827Z,6.33
2018-04-15T22:18:24.880Z,6.53
2018-04-15T22:20:52.889Z,7.60
2018-04-15T22:23:21.248Z,6.07
2018-04-15T22:25:49.304Z,6.23
2018-04-15T22:28:17.304Z,5.70
2018-04-15T22:30:45.341Z,8.63
2018-04-15T22:33:13.359Z,5.90
2018-04-15T22:35:41.379Z,6.60
2018-04-15T22:38:09.571Z,4.87
2018-04-15T22:40:37.842Z,6.37
2018-04-15T22:43:05.886Z,6.07
2018-04-15T22:45:33.918Z,5.13
2018-04-15T22:48:05.112Z,4.93
2018-04-15T22:50:36.966Z,6.20
2018-04-15T22:53:05.009Z,4.90
2018-04-15T22:55:33.004Z,6.27
2018-04-15T22:58:01.209Z,5.47
2018-04-15T23:00:29.240Z,6.73
2018-04-15T23:02:57.224Z,5.30
2018-04-15T23:05:25.300Z,6.20
2018-04-15T23:07:53.558Z,5.23
2018-04-15T23:10:21.563Z,4.47
2018-04-15T23:12:49.609Z,6.33
2018-04-15T23:15:17.650Z,6.53
2018-04-15T23:17:45.693Z,6.60
2018-04-15T23:20:13.717Z,7.10
2018-04-15T23:22:41.742Z,5.60
2018-04-15T23:25:09.760Z,5.37
2018-04-15T23:27:37.772Z,7.50
2018-04-15T23:30:09.747Z,5.77
2018-04-15T23:32:37.758Z,4.57
2018-04-15T23:35:06.093Z,5.30
2018-04-15T23:37:34.099Z,6.33
2018-04-15T23:40:08.507Z,4.97
2018-04-15T23:42:36.924Z,6.07
2018-04-15T23:45:06.722Z,5.37
2018-04-15T23:47:34.732Z,6.63
2018-04-15T23:50:05.874Z,6.00
2018-04-15T23:52:38.130Z,4.50
2018-04-15T23:55:06.470Z,6.20
2018-04-15T23:57:34.443Z,7.67
